createdAt,value
2023-01-07T00:00:27.184Z,47.63
2023-01-07T00:02:58.229Z,47.79
2023-01-07T00:05:29.013Z,47.83
2023-01-07T00:08:01.105Z,47.79
2023-01-07T00:10:31.800Z,47.94
2023-01-07T00:13:02.428Z,47.91
2023-01-07T00:15:33.189Z,47.96
2023-01-07T00:18:03.814Z,47.96
2023-01-07T00:20:34.873Z,47.94
2023-01-07T00:23:05.615Z,47.94
2023-01-07T00:25:36.428Z,48.06
2023-01-07T00:28:07.495Z,48.02
2023-01-07T00:30:38.167Z,47.95
2023-01-07T00:33:11.428Z,48.01
2023-01-07T00:35:44.867Z,48.11
2023-01-07T00:38:15.570Z,48.13
2023-01-07T00:40:46.218Z,48.07
2023-01-07T00:43:16.864Z,47.99
2023-01-07T00:45:47.573Z,48.08
2023-01-07T00:48:18.875Z,48.12
2023-01-07T00:50:51.480Z,48.27
2023-01-07T00:53:23.083Z,48.30
2023-01-07T00:55:54.617Z,48.32
2023-01-07T00:58:26.948Z,48.16
2023-01-07T01:01:02.285Z,48.25
2023-01-07T01:03:34.405Z,48.21
2023-01-07T01:06:08.121Z,48.36
2023-01-07T01:08:39.051Z,48.37
2023-01-07T01:11:12.004Z,48.30
2023-01-07T01:13:43.911Z,48.36
2023-01-07T01:16:17.713Z,48.26
2023-01-07T01:18:49.063Z,48.30
2023-01-07T01:21:20.015Z,48.25
2023-01-07T01:23:50.750Z,48.28
2023-01-07T01:26:21.504Z,48.42
2023-01-07T01:28:52.331Z,48.41
2023-01-07T01:31:23.234Z,48.41
2023-01-07T01:33:56.134Z,48.40
2023-01-07T01:36:26.898Z,48.37
2023-01-07T01:38:57.987Z,48.42
2023-01-07T01:41:28.637Z,48.62
2023-01-07T01:43:59.318Z,48.51
2023-01-07T01:46:35.935Z,48.32
2023-01-07T01:49:11.084Z,48.45
2023-01-07T01:51:46.953Z,48.56
2023-01-07T01:54:19.457Z,48.50
2023-01-07T01:56:54.807Z,48.49
2023-01-07T01:59:35.354Z,48.69
2023-01-07T02:02:06.946Z,48.53
2023-01-07T02:04:38.268Z,48.62
2023-01-07T02:07:15.465Z,48.45
2023-01-07T02:09:47.323Z,48.58
2023-01-07T02:12:26.855Z,48.68
2023-01-07T02:15:10.462Z,48.43
2023-01-07T02:17:56.711Z,48.75
2023-01-07T02:20:40.538Z,48.71
2023-01-07T02:23:37.956Z,48.78
2023-01-07T02:26:36.505Z,48.85
2023-01-07T02:29:40.716Z,48.76
2023-01-07T02:32:26.819Z,48.73
2023-01-07T02:35:10.247Z,48.73
2023-01-07T02:37:56.491Z,48.76
2023-01-07T02:40:36.306Z,48.84
2023-01-07T02:43:14.527Z,48.82
2023-01-07T02:45:50.764Z,48.87
2023-01-07T02:48:23.921Z,48.78
2023-01-07T02:50:54.689Z,48.68
2023-01-07T02:53:25.470Z,48.78
2023-01-07T02:56:14.479Z,48.81
2023-01-07T02:59:02.204Z,48.77
2023-01-07T03:01:46.766Z,48.78
2023-01-07T03:04:37.407Z,48.68
2023-01-07T03:07:24.007Z,48.92
2023-01-07T03:10:01.957Z,48.97
2023-01-07T03:12:38.100Z,48.78
2023-01-07T03:15:15.607Z,48.70
2023-01-07T03:17:53.505Z,48.65
2023-01-07T03:20:26.276Z,48.47
2023-01-07T03:22:59.373Z,48.54
2023-01-07T03:25:32.063Z,48.33
2023-01-07T03:28:04.000Z,48.24
2023-01-07T03:30:35.179Z,48.22
2023-01-07T03:33:11.141Z,48.11
2023-01-07T03:35:44.111Z,47.95
2023-01-07T03:38:16.307Z,47.85
2023-01-07T03:40:47.252Z,47.87
2023-01-07T03:43:19.815Z,47.89
2023-01-07T03:45:53.192Z,47.72
2023-01-07T03:48:24.226Z,47.82
2023-01-07T03:50:54.847Z,47.82
2023-01-07T03:53:25.529Z,47.79
2023-01-07T03:55:56.313Z,47.69
2023-01-07T03:58:27.006Z,47.54
2023-01-07T04:00:58.738Z,47.63
2023-01-07T04:03:29.430Z,47.61
2023-01-07T04:06:00.345Z,47.50
2023-01-07T04:08:31.135Z,47.60
2023-01-07T04:11:01.857Z,47.55
2023-01-07T04:13:32.880Z,47.54
2023-01-07T04:16:03.869Z,47.58
2023-01-07T04:18:34.544Z,47.50
2023-01-07T04:21:05.371Z,47.57
2023-01-07T04:23:36.208Z,47.57
2023-01-07T04:26:07.176Z,47.59
2023-01-07T04:28:37.908Z,47.50
2023-01-07T04:31:09.327Z,47.45
2023-01-07T04:33:40.028Z,47.49
2023-01-07T04:36:13.290Z,47.46
2023-01-07T04:38:43.928Z,47.33
2023-01-07T04:41:14.572Z,47.50
2023-01-07T04:43:45.198Z,47.44
2023-01-07T04:46:15.960Z,47.45
2023-01-07T04:48:46.677Z,47.36
2023-01-07T04:51:17.338Z,47.34
2023-01-07T04:53:48.264Z,47.28
2023-01-07T04:56:19.102Z,47.32
2023-01-07T04:58:49.924Z,47.23
2023-01-07T05:01:21.080Z,47.15
2023-01-07T05:03:52.029Z,47.30
2023-01-07T05:06:22.666Z,47.32
2023-01-07T05:08:53.285Z,47.28
2023-01-07T05:11:24.035Z,47.23
2023-01-07T05:13:54.700Z,47.38
2023-01-07T05:16:25.403Z,47.47
2023-01-07T05:18:56.455Z,47.47
2023-01-07T05:21:27.191Z,47.46
2023-01-07T05:23:57.801Z,47.42
2023-01-07T05:26:28.438Z,47.40
2023-01-07T05:28:59.099Z,47.50
2023-01-07T05:31:29.736Z,47.53
2023-01-07T05:34:00.483Z,47.62
2023-01-07T05:36:31.415Z,47.56
2023-01-07T05:39:02.168Z,47.69
2023-01-07T05:41:33.099Z,47.71
2023-01-07T05:44:04.419Z,47.61
2023-01-07T05:46:35.103Z,47.66
2023-01-07T05:49:06.459Z,47.69
2023-01-07T05:51:37.689Z,47.64
2023-01-07T05:54:08.910Z,47.53
2023-01-07T05:56:39.547Z,47.78
2023-01-07T05:59:10.414Z,47.90
2023-01-07T06:01:41.079Z,47.85
2023-01-07T06:04:12.416Z,47.88
2023-01-07T06:06:43.236Z,47.72
2023-01-07T06:09:14.819Z,47.82
2023-01-07T06:11:45.788Z,48.00
2023-01-07T06:14:16.467Z,48.00
2023-01-07T06:16:47.184Z,48.11
2023-01-07T06:19:18.154Z,48.07
2023-01-07T06:21:48.999Z,47.95
2023-01-07T06:24:19.834Z,47.98
2023-01-07T06:26:50.785Z,47.81
2023-01-07T06:29:21.741Z,47.74
2023-01-07T06:31:52.580Z,47.98
2023-01-07T06:34:23.478Z,47.91
2023-01-07T06:36:54.245Z,47.93
2023-01-07T06:39:25.122Z,47.80
2023-01-07T06:41:55.979Z,47.74
2023-01-07T06:44:26.721Z,47.90
2023-01-07T06:46:57.518Z,47.85
2023-01-07T06:49:28.379Z,48.08
2023-01-07T06:51:59.077Z,48.11
2023-01-07T06:54:29.830Z,48.21
2023-01-07T06:57:00.652Z,48.29
2023-01-07T06:59:31.351Z,48.29
2023-01-07T07:02:02.272Z,48.37
2023-01-07T07:04:33.023Z,48.32
2023-01-07T07:07:03.707Z,48.49
2023-01-07T07:09:34.569Z,48.49
2023-01-07T07:12:05.710Z,48.52
2023-01-07T07:14:36.748Z,48.66
2023-01-07T07:17:07.962Z,48.68
2023-01-07T07:19:38.587Z,48.67
2023-01-07T07:22:09.301Z,48.70
2023-01-07T07:24:40.172Z,48.63
2023-01-07T07:27:10.874Z,48.79
2023-01-07T07:29:41.852Z,48.77
2023-01-07T07:32:12.731Z,48.82
2023-01-07T07:34:43.393Z,48.86
2023-01-07T07:37:14.182Z,48.88
2023-01-07T07:39:44.950Z,48.88
2023-01-07T07:42:15.780Z,48.85
2023-01-07T07:44:46.517Z,48.94
2023-01-07T07:47:17.731Z,48.72
2023-01-07T07:49:48.374Z,48.62
2023-01-07T07:52:19.011Z,48.36
2023-01-07T07:54:49.879Z,48.03
2023-01-07T07:57:20.660Z,48.16
2023-01-07T07:59:51.466Z,47.82
2023-01-07T08:02:22.498Z,47.93
2023-01-07T08:04:53.352Z,47.72
2023-01-07T08:07:32.672Z,47.69
2023-01-07T08:10:04.886Z,47.45
2023-01-07T08:12:37.526Z,47.38
2023-01-07T08:15:10.282Z,47.32
2023-01-07T08:17:41.006Z,47.43
2023-01-07T08:20:13.606Z,47.02
2023-01-07T08:22:44.454Z,47.13
2023-01-07T08:25:15.595Z,47.01
2023-01-07T08:27:47.866Z,47.18
2023-01-07T08:30:18.938Z,47.24
2023-01-07T08:32:50.187Z,47.22
2023-01-07T08:35:21.546Z,47.40
2023-01-07T08:37:52.795Z,47.41
2023-01-07T08:40:23.656Z,47.44
2023-01-07T08:42:54.470Z,47.38
2023-01-07T08:45:25.320Z,47.34
2023-01-07T08:47:57.841Z,47.41
2023-01-07T08:50:30.742Z,47.42
2023-01-07T08:53:01.543Z,47.46
2023-01-07T08:55:32.458Z,47.39
2023-01-07T08:58:03.156Z,47.10
2023-01-07T09:00:34.348Z,46.85
2023-01-07T09:03:07.027Z,46.85
2023-01-07T09:05:38.002Z,46.70
2023-01-07T09:08:09.343Z,46.73
2023-01-07T09:10:40.071Z,46.66
2023-01-07T09:13:10.745Z,46.53
2023-01-07T09:15:41.717Z,46.49
2023-01-07T09:18:12.513Z,46.31
2023-01-07T09:20:43.497Z,46.56
2023-01-07T09:23:14.209Z,46.60
2023-01-07T09:25:45.404Z,46.61
2023-01-07T09:28:16.373Z,46.57
2023-01-07T09:30:47.470Z,46.55
2023-01-07T09:33:18.803Z,46.51
2023-01-07T09:35:49.754Z,46.39
2023-01-07T09:38:20.742Z,46.40
2023-01-07T09:40:52.243Z,46.41
2023-01-07T09:43:59.339Z,46.48
2023-01-07T09:46:21.006Z,46.44
2023-01-07T09:48:58.053Z,46.40
2023-01-07T09:51:34.800Z,46.47
2023-01-07T09:54:14.426Z,46.35
2023-01-07T09:56:45.741Z,46.30
2023-01-07T09:59:18.327Z,46.22
2023-01-07T10:01:55.709Z,46.24
2023-01-07T10:04:34.431Z,46.26
2023-01-07T10:07:16.583Z,46.12
2023-01-07T10:09:57.921Z,46.16
2023-01-07T10:12:41.620Z,46.11
2023-01-07T10:15:22.406Z,46.15
2023-01-07T10:18:23.232Z,45.87
2023-01-07T10:21:00.769Z,45.85
2023-01-07T10:23:38.511Z,45.71
2023-01-07T10:26:16.155Z,45.78
2023-01-07T10:28:51.746Z,45.68
2023-01-07T10:31:25.689Z,45.49
2023-01-07T10:33:59.698Z,45.50
2023-01-07T10:36:32.519Z,45.71
2023-01-07T10:39:15.773Z,45.60
2023-01-07T10:41:56.181Z,45.34
2023-01-07T10:44:53.317Z,45.48
2023-01-07T10:47:37.344Z,45.53
2023-01-07T10:50:31.573Z,45.38
2023-01-07T10:53:12.582Z,45.39
2023-01-07T10:56:00.413Z,45.21
2023-01-07T10:58:37.991Z,45.32
2023-01-07T11:01:18.029Z,45.09
2023-01-07T11:03:52.012Z,45.25
2023-01-07T11:06:28.283Z,45.13
2023-01-07T11:08:59.385Z,45.06
2023-01-07T11:11:30.698Z,44.95
2023-01-07T11:14:04.569Z,44.84
2023-01-07T11:16:43.661Z,44.74
2023-01-07T11:19:15.760Z,44.71
2023-01-07T11:21:48.785Z,44.49
2023-01-07T11:24:35.090Z,44.65
2023-01-07T11:27:17.096Z,44.57
2023-01-07T11:29:57.290Z,44.64
2023-01-07T11:32:31.460Z,44.39
2023-01-07T11:35:04.740Z,44.42
2023-01-07T11:37:46.723Z,44.28
2023-01-07T11:40:26.584Z,44.20
2023-01-07T11:43:00.037Z,44.35
2023-01-07T11:45:36.840Z,44.18
2023-01-07T11:48:19.291Z,44.23
2023-01-07T11:51:00.838Z,44.09
2023-01-07T11:53:38.264Z,44.44
2023-01-07T11:56:12.431Z,44.08
2023-01-07T11:58:45.660Z,44.05
2023-01-07T12:01:19.594Z,44.08
2023-01-07T12:04:12.999Z,44.03
2023-01-07T12:06:47.532Z,44.22
2023-01-07T12:09:26.725Z,44.14
2023-01-07T12:12:01.054Z,44.15
2023-01-07T12:14:35.933Z,44.04
2023-01-07T12:17:18.690Z,43.99
2023-01-07T12:20:29.474Z,44.09
2023-01-07T12:23:15.243Z,44.01
2023-01-07T12:25:56.659Z,44.12
2023-01-07T12:28:34.528Z,44.16
2023-01-07T12:31:23.480Z,44.00
2023-01-07T12:34:05.973Z,44.17
2023-01-07T12:36:45.589Z,43.91
2023-01-07T12:39:22.886Z,43.87
2023-01-07T12:42:03.560Z,44.01
2023-01-07T12:44:36.514Z,44.01
2023-01-07T12:47:32.568Z,44.01
2023-01-07T12:50:05.914Z,44.09
2023-01-07T12:52:42.804Z,44.02
2023-01-07T12:55:21.028Z,44.11
2023-01-07T12:58:01.296Z,44.49
2023-01-07T13:00:36.575Z,44.76
2023-01-07T13:03:20.435Z,44.77
2023-01-07T13:05:56.355Z,45.04
2023-01-07T13:08:36.569Z,45.13
2023-01-07T13:11:17.545Z,44.98
2023-01-07T13:13:52.981Z,45.00
2023-01-07T13:16:24.772Z,44.79
2023-01-07T13:18:55.746Z,44.99
2023-01-07T13:21:27.344Z,44.86
2023-01-07T13:24:21.931Z,44.68
2023-01-07T13:27:23.268Z,44.84
2023-01-07T13:30:08.086Z,44.71
2023-01-07T13:32:51.916Z,44.81
2023-01-07T13:35:35.778Z,44.78
2023-01-07T13:38:22.298Z,44.76
2023-01-07T13:41:11.463Z,44.63
2023-01-07T13:44:15.456Z,44.67
2023-01-07T13:46:48.188Z,44.65
2023-01-07T13:49:28.306Z,44.46
2023-01-07T13:52:13.704Z,44.41
2023-01-07T13:54:59.392Z,44.32
2023-01-07T13:57:51.076Z,44.33
2023-01-07T14:00:45.512Z,44.25
2023-01-07T14:03:35.909Z,44.12
2023-01-07T14:06:43.712Z,44.15
2023-01-07T14:09:42.978Z,44.04
2023-01-07T14:12:34.457Z,44.04
2023-01-07T14:15:38.957Z,44.06
2023-01-07T14:18:40.781Z,43.96
2023-01-07T14:21:22.410Z,43.91
2023-01-07T14:24:05.802Z,43.76
2023-01-07T14:26:41.935Z,43.72
2023-01-07T14:29:32.029Z,43.62
2023-01-07T14:32:31.548Z,43.56
2023-01-07T14:35:13.348Z,43.68
2023-01-07T14:37:47.216Z,43.63
2023-01-07T14:41:00.011Z,43.59
2023-01-07T14:44:03.812Z,43.46
2023-01-07T14:46:48.942Z,43.53
2023-01-07T14:49:51.527Z,43.64
2023-01-07T14:52:47.132Z,43.91
2023-01-07T14:55:37.102Z,43.97
2023-01-07T14:58:23.935Z,43.90
2023-01-07T15:01:26.117Z,44.09
2023-01-07T15:04:25.369Z,44.18
2023-01-07T15:06:59.833Z,44.28
2023-01-07T15:09:58.148Z,44.29
2023-01-07T15:12:51.043Z,44.49
2023-01-07T15:15:43.983Z,44.46
2023-01-07T15:18:16.452Z,44.46
2023-01-07T15:21:04.361Z,44.67
2023-01-07T15:23:41.986Z,44.53
2023-01-07T15:26:17.922Z,44.61
2023-01-07T15:28:54.889Z,44.66
2023-01-07T15:31:30.242Z,44.59
2023-01-07T15:34:08.088Z,44.60
2023-01-07T15:36:44.385Z,44.71
2023-01-07T15:39:22.412Z,44.83
2023-01-07T15:41:56.222Z,44.76
2023-01-07T15:44:29.568Z,44.83
2023-01-07T15:47:00.610Z,44.76
2023-01-07T15:49:36.027Z,44.73
2023-01-07T15:52:26.360Z,44.68
2023-01-07T15:54:57.206Z,44.87
2023-01-07T15:57:31.813Z,44.62
2023-01-07T16:00:03.398Z,44.61
2023-01-07T16:02:38.441Z,44.63
2023-01-07T16:05:10.438Z,44.64
2023-01-07T16:07:50.245Z,44.81
2023-01-07T16:10:27.083Z,44.74
2023-01-07T16:13:01.218Z,44.65
2023-01-07T16:15:34.681Z,44.63
2023-01-07T16:18:18.944Z,44.54
2023-01-07T16:20:56.681Z,44.60
2023-01-07T16:23:30.550Z,44.59
2023-01-07T16:26:05.678Z,44.52
2023-01-07T16:28:41.279Z,44.69
2023-01-07T16:31:16.590Z,44.41
2023-01-07T16:33:48.737Z,44.53
2023-01-07T16:36:22.144Z,44.55
2023-01-07T16:38:58.129Z,44.58
2023-01-07T16:41:31.025Z,44.63
2023-01-07T16:44:03.273Z,44.56
2023-01-07T16:46:36.178Z,44.62
2023-01-07T16:49:30.608Z,44.47
2023-01-07T16:52:13.895Z,44.50
2023-01-07T16:54:45.813Z,44.74
2023-01-07T16:57:33.832Z,44.79
2023-01-07T17:00:07.673Z,44.80
2023-01-07T17:02:43.278Z,44.62
2023-01-07T17:05:19.189Z,44.45
2023-01-07T17:07:54.269Z,44.42
2023-01-07T17:10:30.606Z,44.40
2023-01-07T17:13:04.183Z,44.17
2023-01-07T17:15:42.230Z,44.27
2023-01-07T17:18:32.258Z,44.12
2023-01-07T17:21:03.484Z,44.10
2023-01-07T17:23:45.756Z,44.02
2023-01-07T17:26:25.692Z,43.97
2023-01-07T17:29:00.444Z,44.01
2023-01-07T17:31:31.714Z,44.09
2023-01-07T17:34:02.670Z,44.08
2023-01-07T17:36:35.389Z,43.94
2023-01-07T17:39:06.743Z,44.05
2023-01-07T17:41:56.722Z,43.90
2023-01-07T17:44:27.881Z,43.71
2023-01-07T17:46:58.818Z,43.77
2023-01-07T17:49:29.839Z,43.84
2023-01-07T17:52:01.075Z,43.75
2023-01-07T17:54:32.363Z,43.52
2023-01-07T17:57:03.473Z,43.54
2023-01-07T17:59:34.672Z,43.68
2023-01-07T18:02:06.986Z,43.55
2023-01-07T18:04:38.170Z,43.90
2023-01-07T18:07:09.517Z,43.89
2023-01-07T18:09:42.234Z,43.75
2023-01-07T18:12:35.052Z,43.97
2023-01-07T18:15:17.575Z,44.02
2023-01-07T18:17:48.906Z,44.13
2023-01-07T18:20:21.286Z,44.21
2023-01-07T18:22:52.580Z,44.27
2023-01-07T18:25:25.349Z,44.39
2023-01-07T18:27:56.621Z,44.33
2023-01-07T18:30:27.703Z,44.35
2023-01-07T18:32:59.221Z,44.37
2023-01-07T18:35:30.224Z,44.24
2023-01-07T18:38:01.639Z,44.36
2023-01-07T18:40:34.071Z,44.39
2023-01-07T18:43:05.737Z,44.40
2023-01-07T18:45:37.318Z,44.51
2023-01-07T18:48:09.294Z,44.41
2023-01-07T18:50:41.775Z,44.48
2023-01-07T18:53:13.306Z,44.53
2023-01-07T18:55:46.161Z,44.43
2023-01-07T18:58:17.628Z,44.64
2023-01-07T19:00:48.658Z,44.49
2023-01-07T19:03:19.894Z,44.57
2023-01-07T19:05:51.051Z,44.57
2023-01-07T19:08:21.968Z,44.68
2023-01-07T19:10:53.170Z,44.67
2023-01-07T19:13:26.649Z,44.78
2023-01-07T19:15:57.613Z,44.76
2023-01-07T19:18:28.902Z,44.73
2023-01-07T19:21:04.784Z,44.77
2023-01-07T19:23:35.955Z,44.73
2023-01-07T19:26:09.189Z,44.67
2023-01-07T19:28:40.456Z,44.65
2023-01-07T19:31:12.548Z,44.67
2023-01-07T19:33:44.772Z,44.60
2023-01-07T19:36:17.900Z,44.58
2023-01-07T19:38:50.507Z,44.47
2023-01-07T19:41:23.437Z,44.49
2023-01-07T19:44:00.984Z,44.58
2023-01-07T19:46:34.924Z,44.57
2023-01-07T19:49:06.928Z,44.56
2023-01-07T19:51:39.639Z,44.52
2023-01-07T19:54:16.357Z,44.45
2023-01-07T19:56:48.052Z,44.53
2023-01-07T19:59:19.316Z,44.52
2023-01-07T20:01:51.273Z,44.39
2023-01-07T20:04:24.611Z,44.42
2023-01-07T20:06:56.219Z,44.41
2023-01-07T20:09:27.979Z,44.47
2023-01-07T20:11:59.965Z,44.40
2023-01-07T20:14:32.256Z,44.44
2023-01-07T20:17:03.350Z,44.36
2023-01-07T20:19:34.621Z,44.27
2023-01-07T20:22:05.561Z,44.39
2023-01-07T20:24:36.941Z,44.44
2023-01-07T20:27:09.558Z,44.23
2023-01-07T20:29:40.666Z,44.11
2023-01-07T20:32:11.727Z,44.26
2023-01-07T20:34:43.453Z,44.18
2023-01-07T20:37:14.488Z,44.27
2023-01-07T20:39:45.729Z,44.32
2023-01-07T20:42:16.923Z,44.18
2023-01-07T20:44:47.937Z,44.34
2023-01-07T20:47:19.721Z,44.09
2023-01-07T20:49:50.774Z,44.13
2023-01-07T20:52:21.868Z,44.14
2023-01-07T20:54:52.842Z,44.12
2023-01-07T20:57:23.939Z,44.03
2023-01-07T20:59:55.059Z,44.15
2023-01-07T21:02:26.334Z,44.14
2023-01-07T21:04:57.420Z,44.21
2023-01-07T21:07:29.686Z,44.12
2023-01-07T21:10:00.428Z,44.00
2023-01-07T21:12:31.397Z,44.25
2023-01-07T21:15:02.336Z,44.15
2023-01-07T21:17:33.379Z,44.25
2023-01-07T21:20:04.626Z,44.35
2023-01-07T21:22:38.049Z,44.39
2023-01-07T21:25:11.424Z,44.32
2023-01-07T21:27:43.233Z,44.23
2023-01-07T21:30:17.743Z,44.23
2023-01-07T21:32:48.841Z,44.01
2023-01-07T21:35:19.776Z,43.95
2023-01-07T21:37:52.965Z,44.13
2023-01-07T21:40:24.049Z,44.29
2023-01-07T21:42:54.925Z,44.33
2023-01-07T21:45:25.840Z,44.26
2023-01-07T21:47:56.719Z,44.20
2023-01-07T21:50:30.061Z,44.20
2023-01-07T21:53:00.918Z,44.10
2023-01-07T21:55:31.851Z,44.27
2023-01-07T21:58:03.818Z,44.25
2023-01-07T22:00:34.616Z,44.09
2023-01-07T22:03:05.733Z,44.15
2023-01-07T22:05:36.773Z,44.20
2023-01-07T22:08:09.166Z,44.12
2023-01-07T22:10:40.063Z,44.07
2023-01-07T22:13:11.208Z,44.07
2023-01-07T22:15:43.817Z,44.07
2023-01-07T22:18:14.874Z,44.12
2023-01-07T22:20:46.281Z,44.05
2023-01-07T22:23:19.562Z,44.29
2023-01-07T22:25:50.760Z,44.30
2023-01-07T22:28:24.368Z,44.38
2023-01-07T22:30:55.226Z,44.44
2023-01-07T22:33:26.222Z,44.33
2023-01-07T22:35:57.602Z,44.35
2023-01-07T22:38:29.233Z,44.27
2023-01-07T22:41:00.581Z,44.39
2023-01-07T22:43:33.430Z,44.47
2023-01-07T22:46:08.879Z,44.53
2023-01-07T22:48:40.783Z,44.23
2023-01-07T22:51:17.336Z,44.41
2023-01-07T22:53:48.515Z,44.47
2023-01-07T22:56:19.809Z,44.49
2023-01-07T22:58:50.601Z,44.26
2023-01-07T23:01:22.151Z,44.28
2023-01-07T23:03:52.964Z,44.39
2023-01-07T23:06:24.463Z,44.55
2023-01-07T23:08:55.285Z,44.32
2023-01-07T23:11:43.682Z,44.43
2023-01-07T23:14:17.055Z,44.40
2023-01-07T23:16:48.150Z,44.62
2023-01-07T23:19:19.533Z,44.63
2023-01-07T23:21:54.790Z,44.75
2023-01-07T23:24:26.215Z,44.82
2023-01-07T23:26:57.389Z,44.73
2023-01-07T23:29:28.194Z,44.83
2023-01-07T23:31:59.104Z,44.88
2023-01-07T23:34:30.085Z,44.85
2023-01-07T23:37:00.825Z,44.92
2023-01-07T23:39:31.934Z,44.91
2023-01-07T23:42:02.771Z,44.91
2023-01-07T23:44:33.529Z,45.02
2023-01-07T23:47:04.174Z,45.05
2023-01-07T23:49:34.922Z,45.05
2023-01-07T23:52:05.841Z,45.11
2023-01-07T23:54:39.149Z,45.19
2023-01-07T23:57:10.327Z,45.35
2023-01-07T23:59:42.274Z,45.32
